• Join FlightAware (Why Join?)
  • Login
  • US Flag 
 
03:46AM EST


 

Airport Tracker/Info


-or-


 

Live Flight TrackerFlight Track Log ✈ FIN666 ✈ 20-Dec-2013 ✈ EKCH / CPH - EFHK / HEL

Flight Track Log - Related Links

Times and Time Zones

All times are in EST time to prevent confusion due to time zone crossing. See the FIN666 flight status page for this flight to view local times or setup timezone preferences in your user account.

Time Position Orientation Groundspeed Altitude Reporting Facility
EST Latitude Longitude Course Direction KTS MPH feet Rate Location/Type
07:22AM 55.9296 13.3027 49° Northeast  Level Estimated
07:23AM 56.0070 13.4660 50° Northeast  Level Estimated
07:24AM 56.0842 13.6299 50° Northeast  Level Estimated
07:25AM 56.1612 13.7945 50° Northeast  Level Estimated
07:26AM 56.2379 13.9598 50° Northeast  Level Estimated
07:27AM 56.3145 14.1257 50° Northeast  Level Estimated
07:28AM 56.3931 14.2975 50° Northeast  Level Estimated
07:29AM 56.4715 14.4699 50° Northeast  Level Estimated
07:30AM 56.5497 14.6431 51° Northeast  Level Estimated
07:31AM 56.6276 14.8169 51° Northeast  Level Estimated
07:32AM 56.7053 14.9915 51° Northeast  Level Estimated
07:33AM 56.7827 15.1668 51° Northeast  Level Estimated
07:34AM 56.8599 15.3429 51° Northeast  Level Estimated
07:35AM 56.9369 15.5196 51° Northeast  Level Estimated
07:36AM 57.0136 15.6971 52° Northeast  Level Estimated
07:37AM 57.0900 15.8753 52° Northeast  Level Estimated
07:38AM 57.1662 16.0543 52° Northeast  Level Estimated
07:39AM 57.2421 16.2340 52° Northeast  Level Estimated
07:40AM 57.3178 16.4144 52° Northeast  Level Estimated
07:41AM 57.3932 16.5956 52° Northeast  Level Estimated
07:42AM 57.4683 16.7776 52° Northeast  Level Estimated
07:43AM 57.5432 16.9602 53° Northeast  Level Estimated
07:44AM 57.6179 17.1437 53° Northeast  Level Estimated
07:45AM 57.6922 17.3279 53° Northeast  Level Estimated
07:46AM 57.7663 17.5128 53° Northeast  Level Estimated
07:47AM 57.8401 17.6985 53° Northeast  Level Estimated
07:48AM 57.9137 17.8850 53° Northeast  Level Estimated
07:49AM 57.9869 18.0722 54° Northeast  Level Estimated
07:50AM 58.0600 18.2602 54° Northeast  Level Estimated
07:51AM 58.1327 18.4489 54° Northeast  Level Estimated
07:52AM 58.2051 18.6384 54° Northeast  Level Estimated
07:53AM 58.2773 18.8287 54° Northeast  Level Estimated
07:54AM 58.3491 19.0198 54° Northeast  Level Estimated
07:55AM 58.4207 19.2117 54° Northeast  Level Estimated
07:56AM 58.4920 19.4043 55° Northeast  Level Estimated
07:57AM 58.5630 19.5977 55° Northeast  Level Estimated
07:58AM 58.6338 19.7919 55° Northeast  Level Estimated
07:59AM 58.7042 19.9869 55° Northeast  Level Estimated
08:00AM 58.7743 20.1827 55° Northeast  Level Estimated
08:01AM 58.8441 20.3792 55° Northeast  Level Estimated
08:02AM 58.9137 20.5766 56° Northeast  Level Estimated
08:03AM 58.9829 20.7747 56° Northeast  Level Estimated
08:04AM 59.0518 20.9737 56° Northeast  Level Estimated
08:05AM 59.1204 21.1734 56° Northeast  Level Estimated
08:06AM 59.1888 21.3740 56° Northeast  Level Estimated
08:07AM 59.2567 21.5753 56° Northeast  Level Estimated
08:08AM 59.3244 21.7775 57° Northeast  Level Estimated
08:09AM 59.3918 21.9804 57° Northeast  Level Estimated
08:10AM 59.4589 22.1842 57° Northeast  Level Estimated
08:11AM 59.5256 22.3888 57° Northeast  Level Estimated
08:12AM 59.5920 22.5941 57° Northeast  Level Estimated
08:13AM 59.6581 22.8003 58° Northeast  Level Estimated
08:14AM 59.7239 23.0073 58° Northeast  Level Estimated
08:15AM 59.7893 23.2152 58° Northeast  Level Estimated
08:16AM 59.8545 23.4238 58° Northeast  Level Estimated
08:17AM 59.9192 23.6332 58° Northeast  Level Estimated
08:18AM 59.9837 23.8435 58° Northeast  Level Estimated
08:19AM 60.0478 24.0546 59° Northeast  Level Estimated
08:20AM 60.1116 24.2665 59° Northeast  Level Estimated
08:21AM 60.1750 24.4792 59° Northeast  Level Estimated
08:22AM 60.2381 24.6927 59° Northeast  Level Estimated
08:23AM 60.3009 24.9071 59° Northeast  Level Estimated
08:24AM 60.3172 24.9633 60° Northeast  Level Estimated
08:25AM 60.3172 24.9633 37° Northeast  Level Estimated
08:26AM 60.3172 24.9633 37° Northeast  Level Estimated
08:27AM 60.3172 24.9633 37° Northeast  Level Estimated
08:28AM 60.3172 24.9633 37° Northeast  Level Estimated
08:29AM 60.3172 24.9633 37° Northeast  Level Estimated
08:30AM 60.3172 24.9633 37° Northeast  Level Estimated
08:31AM 60.3172 24.9633 37° Northeast  Level Estimated
08:32AM 60.3172 24.9633 37° Northeast  Level Estimated
08:33AM 60.3172 24.9633 37° Northeast  Level Estimated
08:34AM 60.3172 24.9633 37° Northeast  Level Estimated
08:35AM 60.3172 24.9633 37° Northeast  Level Estimated
08:36AM 60.3172 24.9633 37° Northeast  Level Estimated
08:37AM 60.3172 24.9633 37° Northeast  Level Estimated
08:38AM 60.3172 24.9633 37° Northeast  Level Estimated